createdAt,value
2022-08-01T00:00:17.232Z,1.23
2022-08-01T00:02:43.689Z,1.35
2022-08-01T00:05:10.187Z,1.36
2022-08-01T00:07:36.600Z,1.29
2022-08-01T00:10:02.984Z,1.19
2022-08-01T00:12:29.551Z,1.25
2022-08-01T00:14:55.999Z,1.32
2022-08-01T00:17:22.393Z,1.23
2022-08-01T00:19:48.841Z,1.49
2022-08-01T00:22:15.290Z,1.23
2022-08-01T00:24:41.784Z,1.22
2022-08-01T00:27:08.194Z,1.32
2022-08-01T00:30:12.476Z,1.23
2022-08-01T00:32:21.257Z,1.26
2022-08-01T00:34:47.660Z,1.15
2022-08-01T00:37:15.552Z,1.20
2022-08-01T00:39:42.589Z,1.28
2022-08-01T00:42:09.064Z,1.27
2022-08-01T00:44:35.511Z,1.25
2022-08-01T00:47:02.070Z,1.22
2022-08-01T00:49:28.520Z,1.21
2022-08-01T00:51:55.134Z,1.27
2022-08-01T00:54:21.580Z,1.34
2022-08-01T00:56:47.984Z,1.32
2022-08-01T00:59:14.895Z,1.26
2022-08-01T01:01:46.810Z,1.20
2022-08-01T01:04:16.345Z,1.56
2022-08-01T01:06:42.824Z,1.78
2022-08-01T01:09:09.198Z,1.81
2022-08-01T01:11:35.729Z,1.74
2022-08-01T01:14:02.242Z,1.79
2022-08-01T01:16:28.637Z,1.76
2022-08-01T01:18:55.077Z,1.61
2022-08-01T01:21:24.856Z,1.81
2022-08-01T01:23:51.407Z,1.72
2022-08-01T01:26:17.803Z,1.84
2022-08-01T01:28:44.336Z,1.72
2022-08-01T01:31:11.002Z,1.77
2022-08-01T01:33:37.547Z,1.65
2022-08-01T01:36:14.098Z,1.80
2022-08-01T01:38:40.477Z,1.75
2022-08-01T01:41:06.857Z,1.60
2022-08-01T01:43:33.861Z,1.72
2022-08-01T01:46:00.419Z,1.73
2022-08-01T01:48:26.822Z,1.71
2022-08-01T01:50:53.243Z,1.93
2022-08-01T01:53:19.637Z,1.95
2022-08-01T01:55:49.433Z,1.78
2022-08-01T01:58:16.486Z,1.87
2022-08-01T02:00:42.884Z,1.91
2022-08-01T02:03:11.914Z,1.99
2022-08-01T02:05:38.457Z,1.90
2022-08-01T02:08:04.846Z,1.92
2022-08-01T02:10:31.242Z,1.90
2022-08-01T02:12:57.724Z,1.76
2022-08-01T02:15:24.102Z,1.83
2022-08-01T02:17:50.499Z,1.73
2022-08-01T02:20:16.961Z,1.90
2022-08-01T02:22:43.362Z,1.86
2022-08-01T02:25:09.803Z,1.81
2022-08-01T02:27:36.368Z,2.15
2022-08-01T02:30:02.828Z,2.08
2022-08-01T02:32:29.297Z,1.77
2022-08-01T02:34:55.732Z,1.80
2022-08-01T02:37:22.130Z,1.77
2022-08-01T02:39:48.552Z,1.91
2022-08-01T02:42:15.091Z,1.97
2022-08-01T02:44:41.514Z,1.99
2022-08-01T02:47:07.956Z,1.99
2022-08-01T02:49:34.546Z,2.01
2022-08-01T02:52:01.005Z,1.90
2022-08-01T02:54:27.415Z,1.82
2022-08-01T02:56:53.846Z,1.82
2022-08-01T02:59:22.416Z,1.78
2022-08-01T03:01:49.026Z,1.69
2022-08-01T03:04:15.677Z,1.91
2022-08-01T03:06:44.351Z,1.82
2022-08-01T03:09:11.701Z,1.78
2022-08-01T03:11:38.185Z,2.02
2022-08-01T03:14:04.575Z,1.94
2022-08-01T03:16:30.950Z,2.19
2022-08-01T03:18:57.379Z,2.18
2022-08-01T03:21:23.851Z,1.80
2022-08-01T03:23:54.751Z,2.01
2022-08-01T03:26:22.045Z,1.98
2022-08-01T03:28:48.441Z,2.06
2022-08-01T03:31:14.815Z,2.01
2022-08-01T03:33:41.242Z,2.05
2022-08-01T03:36:07.639Z,1.96
2022-08-01T03:38:34.037Z,1.83
2022-08-01T03:41:00.673Z,2.05
2022-08-01T03:43:27.061Z,1.96
2022-08-01T03:45:53.501Z,2.02
2022-08-01T03:48:20.056Z,2.08
2022-08-01T03:50:46.445Z,1.81
2022-08-01T03:53:12.833Z,1.80
2022-08-01T03:55:39.249Z,2.13
2022-08-01T03:58:09.630Z,2.02
2022-08-01T04:00:36.350Z,2.16
2022-08-01T04:03:02.808Z,1.99
2022-08-01T04:05:29.190Z,1.89
2022-08-01T04:07:55.593Z,1.93
2022-08-01T04:10:22.112Z,1.82
2022-08-01T04:12:48.546Z,1.81
2022-08-01T04:15:14.949Z,1.93
2022-08-01T04:17:41.439Z,1.76
2022-08-01T04:20:07.897Z,2.03
2022-08-01T04:22:37.461Z,1.84
2022-08-01T04:25:04.616Z,1.74
2022-08-01T04:27:49.797Z,1.63
2022-08-01T04:30:17.886Z,1.58
2022-08-01T04:32:44.898Z,1.79
2022-08-01T04:35:22.486Z,1.77
2022-08-01T04:37:50.065Z,1.88
2022-08-01T04:40:16.538Z,1.73
2022-08-01T04:42:43.014Z,1.77
2022-08-01T04:45:09.450Z,1.91
2022-08-01T04:47:35.824Z,1.91
2022-08-01T04:50:02.301Z,1.84
2022-08-01T04:52:28.768Z,1.80
2022-08-01T04:54:55.251Z,1.84
2022-08-01T04:57:21.653Z,1.81
2022-08-01T04:59:48.119Z,1.84
2022-08-01T05:02:14.552Z,1.66
2022-08-01T05:04:40.958Z,1.64
2022-08-01T05:07:07.419Z,1.70
2022-08-01T05:09:33.813Z,1.71
2022-08-01T05:12:00.192Z,1.77
2022-08-01T05:14:26.680Z,1.76
2022-08-01T05:16:53.138Z,1.66
2022-08-01T05:19:19.523Z,1.75
2022-08-01T05:21:46.029Z,1.83
2022-08-01T05:24:12.449Z,1.71
2022-08-01T05:26:40.211Z,1.60
2022-08-01T05:29:06.901Z,1.76
2022-08-01T05:31:33.289Z,1.95
2022-08-01T05:34:01.986Z,1.75
2022-08-01T05:36:28.465Z,1.68
2022-08-01T05:38:54.935Z,1.86
2022-08-01T05:41:21.359Z,1.99
2022-08-01T05:43:47.846Z,1.95
2022-08-01T05:46:14.286Z,1.77
2022-08-01T05:48:40.672Z,1.87
2022-08-01T05:51:07.157Z,1.94
2022-08-01T05:53:33.602Z,1.89
2022-08-01T05:56:00.129Z,1.93
2022-08-01T05:58:26.557Z,1.80
2022-08-01T06:00:52.953Z,1.79
2022-08-01T06:03:19.375Z,1.82
2022-08-01T06:05:45.837Z,1.69
2022-08-01T06:08:12.225Z,1.78
2022-08-01T06:10:38.654Z,1.95
2022-08-01T06:13:05.091Z,1.82
2022-08-01T06:15:31.483Z,1.83
2022-08-01T06:17:57.862Z,1.90
2022-08-01T06:20:24.311Z,1.92
2022-08-01T06:22:52.537Z,2.03
2022-08-01T06:25:21.183Z,1.73
2022-08-01T06:27:48.067Z,1.71
2022-08-01T06:30:14.439Z,1.65
2022-08-01T06:32:40.823Z,1.87
2022-08-01T06:35:07.252Z,1.70
2022-08-01T06:37:33.635Z,1.87
2022-08-01T06:40:00.152Z,1.87
2022-08-01T06:42:26.620Z,1.83
2022-08-01T06:44:53.018Z,1.77
2022-08-01T06:47:19.400Z,1.64
2022-08-01T06:49:45.809Z,1.87
2022-08-01T06:52:12.189Z,1.87
2022-08-01T06:54:38.601Z,1.76
2022-08-01T06:57:05.027Z,2.04
2022-08-01T06:59:31.439Z,1.92
2022-08-01T07:01:57.845Z,1.84
2022-08-01T07:04:24.383Z,1.99
2022-08-01T07:06:50.783Z,1.86
2022-08-01T07:09:17.168Z,2.02
2022-08-01T07:11:43.601Z,1.92
2022-08-01T07:14:09.999Z,1.93
2022-08-01T07:16:36.429Z,1.93
2022-08-01T07:19:02.879Z,1.93
2022-08-01T07:21:40.222Z,2.01
2022-08-01T07:24:12.847Z,1.94
2022-08-01T07:26:39.828Z,2.04
2022-08-01T07:29:21.546Z,2.15
2022-08-01T07:31:47.940Z,1.78
2022-08-01T07:34:14.321Z,1.82
2022-08-01T07:36:40.771Z,1.90
2022-08-01T07:39:07.170Z,2.14
2022-08-01T07:41:45.632Z,1.91
2022-08-01T07:44:20.040Z,2.03
2022-08-01T07:46:46.528Z,2.04
2022-08-01T07:49:12.995Z,2.00
2022-08-01T07:51:39.473Z,1.95
2022-08-01T07:54:05.970Z,2.00
2022-08-01T07:56:32.353Z,1.89
2022-08-01T07:58:58.920Z,1.98
2022-08-01T08:01:25.387Z,1.95
2022-08-01T08:03:51.836Z,1.94
2022-08-01T08:06:18.315Z,1.84
2022-08-01T08:08:44.703Z,1.92
2022-08-01T08:11:11.099Z,1.98
2022-08-01T08:13:37.556Z,2.04
2022-08-01T08:16:03.947Z,2.23
2022-08-01T08:18:30.329Z,2.07
2022-08-01T08:20:56.769Z,1.97
2022-08-01T08:23:41.246Z,2.21
2022-08-01T08:26:09.606Z,2.09
2022-08-01T08:28:36.002Z,2.09
2022-08-01T08:31:02.419Z,2.07
2022-08-01T08:33:28.978Z,1.96
2022-08-01T08:35:55.408Z,1.96
2022-08-01T08:38:28.464Z,2.11
2022-08-01T08:40:56.604Z,2.20
2022-08-01T08:43:23.017Z,2.09
2022-08-01T08:45:59.177Z,1.98
2022-08-01T08:48:28.025Z,2.00
2022-08-01T08:50:54.586Z,1.91
2022-08-01T08:53:21.010Z,1.99
2022-08-01T08:55:55.640Z,2.10
2022-08-01T08:58:26.375Z,2.24
2022-08-01T09:00:57.957Z,2.06
2022-08-01T09:03:24.432Z,2.04
2022-08-01T09:05:50.848Z,1.99
2022-08-01T09:08:17.281Z,2.01
2022-08-01T09:10:43.674Z,2.02
2022-08-01T09:13:10.144Z,2.15
2022-08-01T09:15:36.582Z,2.00
2022-08-01T09:18:03.001Z,2.27
2022-08-01T09:20:29.388Z,2.25
2022-08-01T09:22:55.819Z,2.03
2022-08-01T09:25:22.196Z,2.18
2022-08-01T09:27:56.139Z,2.10
2022-08-01T09:30:26.101Z,1.80
2022-08-01T09:32:53.016Z,1.89
2022-08-01T09:35:19.512Z,2.11
2022-08-01T09:37:47.437Z,2.01
2022-08-01T09:40:14.980Z,2.10
2022-08-01T09:42:41.470Z,2.02
2022-08-01T09:45:07.917Z,1.95
2022-08-01T09:47:34.311Z,2.12
2022-08-01T09:50:10.510Z,1.99
2022-08-01T09:52:37.640Z,2.06
2022-08-01T09:55:07.312Z,1.92
2022-08-01T09:57:33.708Z,1.96
2022-08-01T10:00:01.477Z,2.01
2022-08-01T10:02:28.392Z,1.88
2022-08-01T10:05:00.011Z,1.76
2022-08-01T10:07:43.532Z,2.11
2022-08-01T10:10:10.589Z,1.92
2022-08-01T10:12:38.112Z,1.80
2022-08-01T10:15:10.925Z,2.00
2022-08-01T10:17:50.066Z,1.96
2022-08-01T10:20:29.933Z,1.91
2022-08-01T10:22:57.282Z,1.86
2022-08-01T10:25:41.793Z,1.88
2022-08-01T10:28:10.106Z,1.66
2022-08-01T10:30:36.890Z,1.87
2022-08-01T10:33:03.762Z,1.92
2022-08-01T10:35:46.656Z,1.93
2022-08-01T10:38:14.256Z,1.74
2022-08-01T10:40:40.683Z,1.84
2022-08-01T10:43:07.081Z,1.72
2022-08-01T10:45:33.471Z,1.98
2022-08-01T10:47:59.895Z,1.77
2022-08-01T10:50:26.395Z,1.82
2022-08-01T10:52:52.839Z,1.85
2022-08-01T10:55:20.756Z,1.72
2022-08-01T10:57:48.833Z,1.88
2022-08-01T11:00:19.248Z,1.75
2022-08-01T11:02:45.786Z,1.57
2022-08-01T11:05:14.273Z,1.80
2022-08-01T11:07:42.062Z,1.66
2022-08-01T11:10:10.248Z,1.70
2022-08-01T11:12:41.495Z,1.43
2022-08-01T11:15:10.543Z,1.67
2022-08-01T11:17:38.060Z,1.51
2022-08-01T11:20:08.468Z,1.48
2022-08-01T11:22:34.877Z,1.61
2022-08-01T11:25:01.438Z,1.76
2022-08-01T11:27:27.880Z,1.59
2022-08-01T11:29:57.885Z,1.63
2022-08-01T11:32:26.897Z,1.31
2022-08-01T11:34:53.364Z,1.43
2022-08-01T11:37:19.870Z,1.42
2022-08-01T11:39:46.259Z,1.39
2022-08-01T11:42:15.510Z,1.29
2022-08-01T11:44:43.852Z,1.38
2022-08-01T11:47:13.626Z,1.18
2022-08-01T11:49:40.406Z,1.38
2022-08-01T11:52:06.933Z,1.32
2022-08-01T11:54:35.155Z,1.34
2022-08-01T11:57:02.484Z,1.18
2022-08-01T11:59:38.296Z,1.27
2022-08-01T12:02:08.020Z,1.17
2022-08-01T12:04:34.454Z,1.03
2022-08-01T12:07:00.886Z,1.06
2022-08-01T12:09:27.395Z,1.17
2022-08-01T12:11:53.780Z,1.01
2022-08-01T12:14:20.167Z,1.04
2022-08-01T12:16:46.597Z,1.13
2022-08-01T12:19:12.985Z,1.24
2022-08-01T12:21:40.457Z,1.09
2022-08-01T12:24:06.958Z,1.21
2022-08-01T12:26:33.412Z,1.12
2022-08-01T12:28:59.916Z,1.09
2022-08-01T12:31:26.331Z,1.11
2022-08-01T12:33:52.929Z,1.13
2022-08-01T12:36:19.339Z,1.06
2022-08-01T12:38:45.757Z,1.07
2022-08-01T12:41:12.190Z,1.31
2022-08-01T12:43:38.702Z,1.10
2022-08-01T12:46:05.151Z,1.08
2022-08-01T12:48:31.556Z,1.07
2022-08-01T12:50:57.952Z,1.32
2022-08-01T12:53:24.383Z,1.20
2022-08-01T12:55:58.399Z,1.28
2022-08-01T12:58:26.227Z,1.14
2022-08-01T13:00:52.619Z,1.23
2022-08-01T13:03:19.114Z,1.12
2022-08-01T13:05:45.556Z,1.17
2022-08-01T13:08:11.948Z,1.35
2022-08-01T13:10:38.429Z,1.13
2022-08-01T13:13:04.906Z,1.12
2022-08-01T13:15:31.408Z,1.23
2022-08-01T13:17:57.799Z,1.33
2022-08-01T13:20:24.220Z,1.20
2022-08-01T13:22:50.618Z,1.13
2022-08-01T13:25:19.808Z,1.24
2022-08-01T13:27:53.004Z,1.33
2022-08-01T13:30:20.462Z,1.19
2022-08-01T13:32:46.905Z,1.10
2022-08-01T13:35:13.387Z,1.27
2022-08-01T13:37:39.757Z,1.24
2022-08-01T13:40:06.184Z,1.37
2022-08-01T13:42:32.688Z,1.19
2022-08-01T13:44:59.081Z,1.24
2022-08-01T13:47:31.115Z,1.20
2022-08-01T13:49:58.758Z,1.12
2022-08-01T13:52:25.203Z,1.13
2022-08-01T13:54:52.941Z,1.25
2022-08-01T13:57:19.462Z,1.30
2022-08-01T13:59:45.852Z,1.07
2022-08-01T14:02:12.229Z,1.18
2022-08-01T14:04:38.673Z,1.14
2022-08-01T14:07:10.740Z,1.18
2022-08-01T14:10:04.258Z,1.41
2022-08-01T14:12:27.182Z,1.10
2022-08-01T14:14:53.633Z,1.20
2022-08-01T14:17:20.033Z,1.34
2022-08-01T14:19:46.563Z,1.12
2022-08-01T14:22:13.039Z,0.99
2022-08-01T14:24:39.437Z,1.19
2022-08-01T14:27:07.430Z,1.34
2022-08-01T14:29:54.830Z,1.27
2022-08-01T14:32:20.199Z,1.08
2022-08-01T14:34:52.522Z,1.02
2022-08-01T14:37:18.904Z,1.00
2022-08-01T14:39:53.498Z,1.13
2022-08-01T14:42:21.090Z,1.08
2022-08-01T14:44:49.968Z,1.21
2022-08-01T14:47:21.866Z,1.22
2022-08-01T14:49:48.964Z,1.16
2022-08-01T14:52:15.468Z,1.19
2022-08-01T14:54:41.842Z,1.18
2022-08-01T14:57:08.531Z,1.26
2022-08-01T14:59:34.921Z,1.11
2022-08-01T15:02:01.312Z,1.16
2022-08-01T15:04:27.759Z,1.16
2022-08-01T15:06:54.148Z,1.20
2022-08-01T15:09:20.532Z,1.21
2022-08-01T15:11:47.058Z,1.20
2022-08-01T15:14:13.432Z,1.33
2022-08-01T15:16:39.869Z,1.05
2022-08-01T15:19:06.300Z,1.23
2022-08-01T15:21:41.707Z,1.17
2022-08-01T15:24:08.658Z,1.25
2022-08-01T15:26:35.059Z,1.21
2022-08-01T15:29:01.454Z,1.18
2022-08-01T15:31:27.979Z,1.00
2022-08-01T15:33:54.357Z,1.18
2022-08-01T15:36:25.976Z,1.12
2022-08-01T15:38:53.059Z,1.20
2022-08-01T15:41:19.472Z,1.32
2022-08-01T15:43:45.948Z,1.16
2022-08-01T15:46:22.172Z,1.15
2022-08-01T15:48:48.619Z,1.15
2022-08-01T15:51:15.021Z,1.24
2022-08-01T15:53:45.474Z,1.12
2022-08-01T15:56:11.856Z,1.12
2022-08-01T15:58:38.251Z,1.18
2022-08-01T16:01:04.688Z,1.20
2022-08-01T16:03:31.067Z,1.07
2022-08-01T16:05:58.806Z,1.13
2022-08-01T16:08:25.236Z,1.09
2022-08-01T16:10:51.627Z,1.26
2022-08-01T16:13:18.009Z,1.28
2022-08-01T16:15:44.458Z,1.15
2022-08-01T16:18:10.852Z,1.21
2022-08-01T16:20:42.854Z,1.30
2022-08-01T16:23:11.002Z,1.17
2022-08-01T16:25:37.553Z,1.24
2022-08-01T16:28:03.918Z,1.28
2022-08-01T16:30:31.055Z,1.28
2022-08-01T16:33:03.924Z,1.32
2022-08-01T16:35:36.522Z,1.36
2022-08-01T16:38:03.136Z,1.08
2022-08-01T16:40:29.654Z,1.31
2022-08-01T16:42:56.092Z,1.28
2022-08-01T16:45:25.009Z,1.35
2022-08-01T16:47:51.459Z,1.47
2022-08-01T16:50:17.895Z,1.13
2022-08-01T16:52:54.352Z,1.35
2022-08-01T16:55:22.633Z,1.29
2022-08-01T16:57:49.008Z,1.21
2022-08-01T17:00:21.406Z,1.29
2022-08-01T17:02:49.141Z,1.40
2022-08-01T17:05:15.581Z,1.44
2022-08-01T17:07:41.968Z,1.26
2022-08-01T17:10:08.693Z,1.50
2022-08-01T17:12:35.084Z,1.31
2022-08-01T17:15:01.468Z,1.34
2022-08-01T17:17:27.900Z,1.54
2022-08-01T17:19:54.289Z,1.29
2022-08-01T17:22:20.741Z,1.38
2022-08-01T17:24:47.341Z,1.19
2022-08-01T17:27:14.058Z,1.42
2022-08-01T17:29:44.075Z,1.44
2022-08-01T17:32:10.891Z,1.31
2022-08-01T17:34:37.262Z,1.52
2022-08-01T17:37:03.899Z,1.37
2022-08-01T17:39:39.493Z,1.45
2022-08-01T17:42:06.276Z,1.37
2022-08-01T17:44:32.707Z,1.48
2022-08-01T17:46:59.096Z,1.68
2022-08-01T17:49:52.383Z,1.39
2022-08-01T17:52:12.023Z,1.58
2022-08-01T17:54:38.702Z,1.53
2022-08-01T17:57:08.255Z,1.46
2022-08-01T17:59:35.132Z,1.74
2022-08-01T18:02:01.600Z,1.63
2022-08-01T18:04:31.011Z,1.58
2022-08-01T18:07:00.496Z,1.54
2022-08-01T18:09:26.893Z,1.35
2022-08-01T18:11:53.277Z,1.44
2022-08-01T18:14:19.794Z,1.44
2022-08-01T18:16:46.200Z,1.45
2022-08-01T18:19:12.603Z,1.39
2022-08-01T18:21:42.800Z,1.67
2022-08-01T18:24:09.607Z,1.48
2022-08-01T18:26:36.001Z,1.37
2022-08-01T18:29:02.415Z,1.45
2022-08-01T18:31:28.790Z,1.57
2022-08-01T18:33:55.178Z,1.38
2022-08-01T18:36:32.455Z,1.60
2022-08-01T18:39:00.170Z,1.50
2022-08-01T18:41:26.604Z,1.30
2022-08-01T18:43:52.972Z,1.45
2022-08-01T18:46:30.616Z,1.52
2022-08-01T18:48:57.012Z,1.52
2022-08-01T18:51:23.408Z,1.57
2022-08-01T18:53:49.823Z,1.23
2022-08-01T18:56:16.227Z,1.44
2022-08-01T18:58:42.612Z,1.47
2022-08-01T19:01:09.139Z,1.42
2022-08-01T19:03:38.591Z,1.38
2022-08-01T19:06:08.686Z,1.48
2022-08-01T19:08:35.223Z,1.46
2022-08-01T19:11:01.604Z,1.32
2022-08-01T19:13:27.989Z,1.50
2022-08-01T19:15:54.430Z,1.30
2022-08-01T19:18:20.879Z,1.55
2022-08-01T19:20:47.274Z,1.39
2022-08-01T19:23:13.815Z,1.51
2022-08-01T19:25:55.105Z,1.46
2022-08-01T19:28:22.256Z,1.43
2022-08-01T19:30:53.658Z,1.52
2022-08-01T19:33:20.175Z,1.44
2022-08-01T19:35:46.619Z,1.54
2022-08-01T19:38:13.034Z,1.52
2022-08-01T19:40:39.428Z,1.60
2022-08-01T19:43:05.950Z,1.52
2022-08-01T19:45:32.357Z,1.36
2022-08-01T19:47:58.724Z,1.34
2022-08-01T19:50:25.172Z,1.37
2022-08-01T19:52:51.575Z,1.47
2022-08-01T19:55:17.947Z,1.44
2022-08-01T19:57:45.558Z,1.41
2022-08-01T20:00:23.839Z,1.73
2022-08-01T20:02:54.923Z,1.37
2022-08-01T20:05:21.323Z,1.55
2022-08-01T20:07:47.750Z,1.51
2022-08-01T20:10:14.205Z,1.58
2022-08-01T20:12:40.598Z,1.52
2022-08-01T20:15:07.013Z,1.49
2022-08-01T20:17:33.456Z,1.67
2022-08-01T20:19:59.890Z,1.57
2022-08-01T20:22:26.322Z,1.41
2022-08-01T20:24:52.771Z,1.51
2022-08-01T20:27:19.201Z,1.53
2022-08-01T20:29:45.621Z,1.46
2022-08-01T20:32:12.127Z,1.49
2022-08-01T20:34:38.576Z,1.42
2022-08-01T20:37:04.988Z,1.53
2022-08-01T20:39:33.351Z,1.44
2022-08-01T20:42:00.544Z,1.55
2022-08-01T20:44:27.044Z,1.42
2022-08-01T20:46:53.600Z,1.65
2022-08-01T20:49:20.088Z,1.47
2022-08-01T20:51:46.502Z,1.37
2022-08-01T20:54:13.028Z,1.40
2022-08-01T20:56:39.437Z,1.38
2022-08-01T20:59:05.840Z,1.46
2022-08-01T21:01:32.249Z,1.36
2022-08-01T21:04:00.279Z,1.49
2022-08-01T21:06:26.685Z,1.54
2022-08-01T21:08:53.117Z,1.66
2022-08-01T21:11:19.524Z,1.55
2022-08-01T21:13:46.116Z,1.48
2022-08-01T21:16:24.351Z,1.55
2022-08-01T21:19:16.836Z,1.33
2022-08-01T21:21:37.873Z,1.55
2022-08-01T21:24:04.256Z,1.53
2022-08-01T21:26:30.640Z,1.57
2022-08-01T21:29:00.601Z,1.62
2022-08-01T21:31:28.621Z,1.50
2022-08-01T21:34:07.239Z,1.50
2022-08-01T21:36:33.649Z,1.66
2022-08-01T21:39:00.055Z,1.57
2022-08-01T21:42:04.745Z,1.44
2022-08-01T21:44:12.853Z,1.44
2022-08-01T21:46:39.351Z,1.50
2022-08-01T21:49:05.796Z,1.46
2022-08-01T21:51:32.204Z,1.61
2022-08-01T21:54:09.826Z,1.53
2022-08-01T21:56:36.946Z,1.45
2022-08-01T21:59:03.899Z,1.55
2022-08-01T22:01:30.460Z,1.49
2022-08-01T22:04:00.617Z,1.39
2022-08-01T22:06:27.053Z,1.37
2022-08-01T22:08:53.427Z,1.59
2022-08-01T22:11:19.818Z,1.46
2022-08-01T22:13:46.226Z,1.37
2022-08-01T22:16:12.612Z,1.45
2022-08-01T22:18:38.999Z,1.43
2022-08-01T22:21:05.424Z,1.55
2022-08-01T22:23:31.811Z,1.37
2022-08-01T22:25:58.310Z,1.51
2022-08-01T22:28:24.853Z,1.45
2022-08-01T22:30:51.264Z,1.56
2022-08-01T22:33:17.951Z,1.35
2022-08-01T22:35:44.521Z,1.60
2022-08-01T22:38:10.900Z,1.43
2022-08-01T22:40:37.292Z,1.63
2022-08-01T22:43:03.832Z,1.36
2022-08-01T22:45:30.211Z,1.45
2022-08-01T22:47:56.622Z,1.46
2022-08-01T22:50:36.052Z,1.31
2022-08-01T22:53:03.171Z,1.39
2022-08-01T22:55:58.089Z,1.27
2022-08-01T22:58:18.830Z,1.31
2022-08-01T23:00:45.261Z,1.52
2022-08-01T23:03:11.688Z,1.39
2022-08-01T23:05:38.124Z,1.24
2022-08-01T23:08:04.553Z,1.44
2022-08-01T23:10:30.987Z,1.18
2022-08-01T23:12:57.375Z,1.56
2022-08-01T23:15:23.829Z,1.30
2022-08-01T23:17:50.230Z,1.39
2022-08-01T23:20:16.629Z,1.41
2022-08-01T23:22:43.053Z,1.37
2022-08-01T23:25:09.433Z,1.41
2022-08-01T23:27:55.798Z,1.54
2022-08-01T23:30:22.260Z,1.40
2022-08-01T23:32:50.050Z,1.25
2022-08-01T23:35:16.447Z,1.39
2022-08-01T23:37:42.914Z,1.21
2022-08-01T23:40:09.333Z,1.28
2022-08-01T23:42:35.757Z,1.39
2022-08-01T23:45:02.204Z,1.44
2022-08-01T23:47:28.655Z,1.45
2022-08-01T23:49:55.092Z,1.42
2022-08-01T23:52:21.787Z,1.24
2022-08-01T23:54:48.246Z,1.30
2022-08-01T23:57:16.269Z,1.41
2022-08-01T23:59:52.849Z,1.34
